createdAt,value
2023-03-19T00:01:05.517Z,5.90
2023-03-19T00:03:33.927Z,5.63
2023-03-19T00:06:02.674Z,5.55
2023-03-19T00:08:30.945Z,5.68
2023-03-19T00:10:59.261Z,5.85
2023-03-19T00:13:28.016Z,5.40
2023-03-19T00:15:57.593Z,6.38
2023-03-19T00:18:25.977Z,4.97
2023-03-19T00:20:54.272Z,6.03
2023-03-19T00:23:22.644Z,6.40
2023-03-19T00:25:50.935Z,5.45
2023-03-19T00:28:19.210Z,5.70
2023-03-19T00:30:47.608Z,6.60
2023-03-19T00:33:17.291Z,6.93
2023-03-19T00:35:46.261Z,6.53
2023-03-19T00:38:14.613Z,6.28
2023-03-19T00:40:42.901Z,6.93
2023-03-19T00:43:11.590Z,6.30
2023-03-19T00:45:39.874Z,5.75
2023-03-19T00:48:08.163Z,6.65
2023-03-19T00:50:37.880Z,6.20
2023-03-19T00:53:06.152Z,5.57
2023-03-19T00:55:34.791Z,6.18
2023-03-19T00:58:03.453Z,5.88
2023-03-19T01:03:01.460Z,5.70
2023-03-19T01:05:29.690Z,5.63
2023-03-19T01:08:02.600Z,6.80
2023-03-19T01:10:30.884Z,5.72
2023-03-19T01:12:59.231Z,6.03
2023-03-19T01:15:27.562Z,6.18
2023-03-19T01:17:55.866Z,6.47
2023-03-19T01:20:24.240Z,6.43
2023-03-19T01:22:52.735Z,6.68
2023-03-19T01:25:22.440Z,6.07
2023-03-19T01:27:52.399Z,6.90
2023-03-19T01:30:20.791Z,5.68
2023-03-19T01:32:49.156Z,6.57
2023-03-19T01:35:17.643Z,6.45
2023-03-19T01:37:45.911Z,6.07
2023-03-19T01:40:15.420Z,6.35
2023-03-19T01:42:55.649Z,6.95
2023-03-19T01:45:35.477Z,6.90
2023-03-19T01:48:03.950Z,6.30
2023-03-19T01:50:38.284Z,6.88
2023-03-19T01:53:06.764Z,6.55
2023-03-19T01:55:35.704Z,5.97
2023-03-19T01:58:07.051Z,6.25
2023-03-19T02:00:36.087Z,6.53
2023-03-19T02:03:04.883Z,6.25
2023-03-19T02:05:33.257Z,6.20
2023-03-19T02:08:05.172Z,6.30
2023-03-19T02:10:33.671Z,6.22
2023-03-19T02:13:02.219Z,6.43
2023-03-19T02:15:32.084Z,6.88
2023-03-19T02:18:00.404Z,6.50
2023-03-19T02:20:33.596Z,7.13
2023-03-19T02:23:08.324Z,7.00
2023-03-19T02:25:41.871Z,6.57
2023-03-19T02:28:12.198Z,6.53
2023-03-19T02:30:41.183Z,7.38
2023-03-19T02:33:11.311Z,6.00
2023-03-19T02:35:39.776Z,5.85
2023-03-19T02:38:08.066Z,6.03
2023-03-19T02:40:39.670Z,6.35
2023-03-19T02:43:08.163Z,6.85
2023-03-19T02:45:38.067Z,7.97
2023-03-19T02:48:06.867Z,8.15
2023-03-19T02:50:35.424Z,5.65
2023-03-19T02:53:03.930Z,5.45
2023-03-19T02:55:32.303Z,6.40
2023-03-19T02:58:00.745Z,6.63
2023-03-19T03:00:29.106Z,6.95
2023-03-19T03:02:59.272Z,7.03
2023-03-19T03:05:27.553Z,6.97
2023-03-19T03:07:55.803Z,6.93
2023-03-19T03:10:24.126Z,6.75
2023-03-19T03:12:52.607Z,6.90
2023-03-19T03:15:21.616Z,6.85
2023-03-19T03:17:49.937Z,6.80
2023-03-19T03:20:21.153Z,7.00
2023-03-19T03:22:49.777Z,7.07
2023-03-19T03:25:18.128Z,8.15
2023-03-19T03:27:46.606Z,7.25
2023-03-19T03:30:15.995Z,6.65
2023-03-19T03:32:44.878Z,7.72
2023-03-19T03:35:13.289Z,8.32
2023-03-19T03:37:42.903Z,8.30
2023-03-19T03:40:12.207Z,7.25
2023-03-19T03:42:40.610Z,8.05
2023-03-19T03:45:10.722Z,8.52
2023-03-19T03:47:39.561Z,7.78
2023-03-19T03:50:10.943Z,7.88
2023-03-19T03:52:39.867Z,7.85
2023-03-19T03:55:10.812Z,8.05
2023-03-19T03:57:39.092Z,8.43
2023-03-19T04:00:08.596Z,7.15
2023-03-19T04:02:36.940Z,7.50
2023-03-19T04:05:06.600Z,7.55
2023-03-19T04:07:34.805Z,7.80
2023-03-19T04:10:03.117Z,8.18
2023-03-19T04:12:32.879Z,7.82
2023-03-19T04:15:01.144Z,8.00
2023-03-19T04:17:29.370Z,8.57
2023-03-19T04:19:57.640Z,7.85
2023-03-19T04:22:25.982Z,9.35
2023-03-19T04:24:54.326Z,8.23
2023-03-19T04:27:22.587Z,7.95
2023-03-19T04:29:52.152Z,7.72
2023-03-19T04:32:20.359Z,6.88
2023-03-19T04:34:48.611Z,7.70
2023-03-19T04:37:16.995Z,8.07
2023-03-19T04:39:45.632Z,7.80
2023-03-19T04:42:14.320Z,7.95
2023-03-19T04:44:42.669Z,8.40
2023-03-19T04:47:12.534Z,7.90
2023-03-19T04:49:41.539Z,7.93
2023-03-19T04:52:10.418Z,8.15
2023-03-19T04:54:38.648Z,8.38
2023-03-19T04:57:07.211Z,8.40
2023-03-19T04:59:35.425Z,8.13
2023-03-19T05:02:03.819Z,7.45
2023-03-19T05:04:33.441Z,8.18
2023-03-19T05:07:01.836Z,8.15
2023-03-19T05:09:30.918Z,7.47
2023-03-19T05:11:59.327Z,7.53
2023-03-19T05:14:28.128Z,7.68
2023-03-19T05:16:56.359Z,8.85
2023-03-19T05:19:25.161Z,8.18
2023-03-19T05:21:54.731Z,8.02
2023-03-19T05:24:23.205Z,7.18
2023-03-19T05:26:51.464Z,8.02
2023-03-19T05:29:19.757Z,8.07
2023-03-19T05:31:48.123Z,8.27
2023-03-19T05:34:16.495Z,7.88
2023-03-19T05:36:44.681Z,8.15
2023-03-19T05:39:14.354Z,8.68
2023-03-19T05:41:42.648Z,9.07
2023-03-19T05:44:10.945Z,8.75
2023-03-19T05:46:39.245Z,8.18
2023-03-19T05:49:07.539Z,7.57
2023-03-19T05:51:35.971Z,8.13
2023-03-19T05:54:04.757Z,8.82
2023-03-19T05:56:34.559Z,8.43
2023-03-19T05:59:02.944Z,8.68
2023-03-19T06:01:31.424Z,9.10
2023-03-19T06:03:59.880Z,8.70
2023-03-19T06:06:28.256Z,7.88
2023-03-19T06:08:56.541Z,8.35
2023-03-19T06:11:24.824Z,8.73
2023-03-19T06:13:54.520Z,9.27
2023-03-19T06:16:22.803Z,8.90
2023-03-19T06:18:51.681Z,9.13
2023-03-19T06:21:19.977Z,8.73
2023-03-19T06:23:48.221Z,9.13
2023-03-19T06:26:16.520Z,8.77
2023-03-19T06:28:44.760Z,8.35
2023-03-19T06:31:14.647Z,9.32
2023-03-19T06:33:42.905Z,9.30
2023-03-19T06:36:11.323Z,10.10
2023-03-19T06:38:39.604Z,10.73
2023-03-19T06:41:07.878Z,8.95
2023-03-19T06:43:37.240Z,8.77
2023-03-19T06:46:08.800Z,8.43
2023-03-19T06:48:39.239Z,8.68
2023-03-19T06:51:07.706Z,8.40
2023-03-19T06:53:36.045Z,8.15
2023-03-19T06:56:04.661Z,7.85
2023-03-19T06:58:33.260Z,9.50
2023-03-19T07:01:01.618Z,9.23
2023-03-19T07:03:29.900Z,9.48
2023-03-19T07:05:59.652Z,8.68
2023-03-19T07:08:29.883Z,8.10
2023-03-19T07:10:58.321Z,8.30
2023-03-19T07:13:26.566Z,8.57
2023-03-19T07:15:54.855Z,7.93
2023-03-19T07:18:23.113Z,7.78
2023-03-19T07:20:52.893Z,8.35
2023-03-19T07:23:22.601Z,8.77
2023-03-19T07:25:50.901Z,8.53
2023-03-19T07:28:19.137Z,7.82
2023-03-19T07:30:47.417Z,8.18
2023-03-19T07:33:15.804Z,8.18
2023-03-19T07:35:44.037Z,7.38
2023-03-19T07:38:12.471Z,8.32
2023-03-19T07:40:51.342Z,8.13
2023-03-19T07:43:27.497Z,8.85
2023-03-19T07:45:55.752Z,8.90
2023-03-19T07:48:24.056Z,8.90
2023-03-19T07:50:52.876Z,9.10
2023-03-19T07:53:21.403Z,9.10
2023-03-19T07:55:51.033Z,8.82
2023-03-19T07:58:19.486Z,7.90
2023-03-19T08:00:48.193Z,7.88
2023-03-19T08:03:16.587Z,8.10
2023-03-19T08:05:44.927Z,7.45
2023-03-19T08:08:13.203Z,7.10
2023-03-19T08:10:41.872Z,7.00
2023-03-19T08:13:11.839Z,7.60
2023-03-19T08:15:40.286Z,6.80
2023-03-19T08:18:09.158Z,6.70
2023-03-19T08:20:37.452Z,5.53
2023-03-19T08:23:06.103Z,5.82
2023-03-19T08:25:34.472Z,6.03
2023-03-19T08:28:02.819Z,5.50
2023-03-19T08:30:33.198Z,4.47
2023-03-19T08:33:01.715Z,4.68
2023-03-19T08:35:30.479Z,4.35
2023-03-19T08:37:58.958Z,4.55
2023-03-19T08:40:27.408Z,3.60
2023-03-19T08:42:56.944Z,3.05
2023-03-19T08:45:25.681Z,2.60
2023-03-19T08:47:55.339Z,1.92
2023-03-19T08:50:23.641Z,3.23
2023-03-19T08:52:52.210Z,2.63
2023-03-19T08:55:20.825Z,2.15
2023-03-19T08:57:49.214Z,2.22
2023-03-19T09:00:19.503Z,1.85
2023-03-19T09:02:47.914Z,3.22
2023-03-19T09:05:20.252Z,3.33
2023-03-19T09:07:48.616Z,3.05
2023-03-19T09:10:16.966Z,3.22
2023-03-19T09:12:46.761Z,3.80
2023-03-19T09:15:17.061Z,3.45
2023-03-19T09:17:45.570Z,3.05
2023-03-19T09:20:14.168Z,3.47
2023-03-19T09:22:43.808Z,3.20
2023-03-19T09:25:12.611Z,3.47
2023-03-19T09:27:40.899Z,3.20
2023-03-19T09:30:10.745Z,3.13
2023-03-19T09:32:39.103Z,3.03
2023-03-19T09:35:08.700Z,1.80
2023-03-19T09:37:37.054Z,2.00
2023-03-19T09:40:08.597Z,2.60
2023-03-19T09:42:53.817Z,2.40
2023-03-19T09:45:22.305Z,2.13
2023-03-19T09:47:53.042Z,2.72
2023-03-19T09:50:24.192Z,2.60
2023-03-19T09:52:57.656Z,2.67
2023-03-19T09:55:37.592Z,1.88
2023-03-19T09:58:12.200Z,2.83
2023-03-19T10:00:40.692Z,2.92
2023-03-19T10:03:19.262Z,1.85
2023-03-19T10:05:53.271Z,2.80
2023-03-19T10:08:34.210Z,2.80
2023-03-19T10:11:15.348Z,2.38
2023-03-19T10:13:53.560Z,2.92
2023-03-19T10:16:23.408Z,3.75
2023-03-19T10:18:54.370Z,1.90
2023-03-19T10:21:27.329Z,2.28
2023-03-19T10:23:58.505Z,2.88
2023-03-19T10:26:31.382Z,2.80
2023-03-19T10:29:05.390Z,2.70
2023-03-19T10:31:43.972Z,2.15
2023-03-19T10:34:31.412Z,2.30
2023-03-19T10:37:01.760Z,1.80
2023-03-19T10:39:32.160Z,2.33
2023-03-19T10:42:11.361Z,1.90
2023-03-19T10:44:44.229Z,1.70
2023-03-19T10:47:14.428Z,2.65
2023-03-19T10:49:43.252Z,2.10
2023-03-19T10:52:19.911Z,3.13
2023-03-19T10:54:48.274Z,2.60
2023-03-19T10:57:26.749Z,2.67
2023-03-19T10:59:55.917Z,2.17
2023-03-19T11:02:27.935Z,2.10
2023-03-19T11:05:08.698Z,2.03
2023-03-19T11:07:37.840Z,2.92
2023-03-19T11:10:07.554Z,1.77
2023-03-19T11:12:37.794Z,2.85
2023-03-19T11:15:17.744Z,3.20
2023-03-19T11:17:48.221Z,2.63
2023-03-19T11:23:02.207Z,3.42
2023-03-19T11:25:32.589Z,3.00
2023-03-19T11:30:39.442Z,2.80
2023-03-19T11:33:16.452Z,1.70
2023-03-19T11:35:49.715Z,1.65
2023-03-19T11:38:21.387Z,2.80
2023-03-19T11:40:54.979Z,2.20
2023-03-19T11:43:40.929Z,1.95
2023-03-19T11:46:21.040Z,2.20
2023-03-19T11:49:12.233Z,2.40
2023-03-19T11:51:45.030Z,1.70
2023-03-19T11:54:21.668Z,2.00
2023-03-19T11:56:52.644Z,1.20
2023-03-19T11:59:43.377Z,2.22
2023-03-19T12:02:41.801Z,0.73
2023-03-19T12:05:18.862Z,2.10
2023-03-19T12:07:55.433Z,1.98
2023-03-19T12:10:30.081Z,2.17
2023-03-19T12:13:06.108Z,1.80
2023-03-19T12:15:39.478Z,2.22
2023-03-19T12:18:17.978Z,2.10
2023-03-19T12:20:54.506Z,2.20
2023-03-19T12:23:35.791Z,2.03
2023-03-19T12:26:06.150Z,2.10
2023-03-19T12:28:36.282Z,2.53
2023-03-19T12:31:27.768Z,2.15
2023-03-19T12:34:05.931Z,2.50
2023-03-19T12:36:38.480Z,2.10
2023-03-19T12:39:10.791Z,2.15
2023-03-19T12:41:43.003Z,2.15
2023-03-19T12:44:14.941Z,1.92
2023-03-19T12:46:46.909Z,2.40
2023-03-19T12:49:17.942Z,2.10
2023-03-19T12:51:47.893Z,2.42
2023-03-19T12:54:20.280Z,2.33
2023-03-19T12:56:53.413Z,2.30
2023-03-19T12:59:30.003Z,2.05
2023-03-19T13:02:04.565Z,2.17
2023-03-19T13:04:39.424Z,1.95
2023-03-19T13:07:11.441Z,1.65
2023-03-19T13:09:42.191Z,2.25
2023-03-19T13:12:13.274Z,2.17
2023-03-19T13:14:50.070Z,2.33
2023-03-19T13:17:25.829Z,2.10
2023-03-19T13:19:56.320Z,2.35
2023-03-19T13:24:54.467Z,1.90
2023-03-19T13:27:24.230Z,2.10
2023-03-19T13:30:08.616Z,2.33
2023-03-19T13:32:42.408Z,1.98
2023-03-19T13:35:19.702Z,2.40
2023-03-19T13:37:48.653Z,2.33
2023-03-19T13:40:47.349Z,2.00
2023-03-19T13:43:46.692Z,2.20
2023-03-19T13:46:46.215Z,2.15
2023-03-19T13:49:30.070Z,2.30
2023-03-19T13:52:04.497Z,2.78
2023-03-19T13:54:35.654Z,2.17
2023-03-19T13:57:19.440Z,2.05
2023-03-19T13:59:49.824Z,2.17
2023-03-19T14:02:47.915Z,2.10
2023-03-19T14:05:20.771Z,2.40
2023-03-19T14:07:54.234Z,2.22
2023-03-19T14:10:28.203Z,2.08
2023-03-19T14:13:05.361Z,2.22
2023-03-19T14:15:33.860Z,2.40
2023-03-19T14:18:05.881Z,2.20
2023-03-19T14:20:47.860Z,2.70
2023-03-19T14:23:23.654Z,2.58
2023-03-19T14:26:08.088Z,2.30
2023-03-19T14:28:41.487Z,2.47
2023-03-19T14:31:24.139Z,2.78
2023-03-19T14:33:57.085Z,2.70
2023-03-19T14:36:27.956Z,2.38
2023-03-19T14:38:59.133Z,2.30
2023-03-19T14:41:30.168Z,2.40
2023-03-19T14:44:31.155Z,2.63
2023-03-19T14:47:28.698Z,2.70
2023-03-19T14:50:16.066Z,2.50
2023-03-19T14:52:48.031Z,2.60
2023-03-19T14:55:17.540Z,2.78
2023-03-19T14:57:46.528Z,2.42
2023-03-19T15:00:17.435Z,2.38
2023-03-19T15:02:48.173Z,2.80
2023-03-19T15:05:21.815Z,2.45
2023-03-19T15:07:55.071Z,2.80
2023-03-19T15:10:25.044Z,2.60
2023-03-19T15:13:22.762Z,3.03
2023-03-19T15:16:03.027Z,2.45
2023-03-19T15:18:31.383Z,2.60
2023-03-19T15:20:59.861Z,2.92
2023-03-19T15:23:30.948Z,2.55
2023-03-19T15:26:01.299Z,2.67
2023-03-19T15:31:14.455Z,2.30
2023-03-19T15:33:48.128Z,2.58
2023-03-19T15:36:20.173Z,3.20
2023-03-19T15:38:53.976Z,2.90
2023-03-19T15:41:23.099Z,2.88
2023-03-19T15:43:51.486Z,2.95
2023-03-19T15:46:22.395Z,3.05
2023-03-19T15:48:52.544Z,2.80
2023-03-19T15:51:23.521Z,3.25
2023-03-19T15:53:53.592Z,2.72
2023-03-19T15:56:22.066Z,3.00
2023-03-19T15:58:53.401Z,2.60
2023-03-19T16:01:22.439Z,2.88
2023-03-19T16:03:52.780Z,2.97
2023-03-19T16:06:26.539Z,2.50
2023-03-19T16:08:58.171Z,2.08
2023-03-19T16:11:30.099Z,3.00
2023-03-19T16:13:59.690Z,15.82
2023-03-19T16:16:30.748Z,17.17
2023-03-19T16:19:00.106Z,5.50
2023-03-19T16:21:35.426Z,7.90
2023-03-19T16:24:10.488Z,3.63
2023-03-19T16:26:40.481Z,3.38
2023-03-19T16:29:19.294Z,3.38
2023-03-19T16:31:51.814Z,3.38
2023-03-19T16:34:26.338Z,3.08
2023-03-19T16:36:54.737Z,3.47
2023-03-19T16:39:33.882Z,3.70
2023-03-19T16:42:38.190Z,3.67
2023-03-19T16:45:19.956Z,3.90
2023-03-19T16:47:49.667Z,3.58
2023-03-19T16:50:19.337Z,3.97
2023-03-19T16:52:48.913Z,3.97
2023-03-19T16:55:21.587Z,4.20
2023-03-19T16:57:55.708Z,4.50
2023-03-19T17:00:24.849Z,4.82
2023-03-19T17:02:55.713Z,4.55
2023-03-19T17:05:24.008Z,5.00
2023-03-19T17:07:52.340Z,5.30
2023-03-19T17:10:23.508Z,4.72
2023-03-19T17:12:53.819Z,4.72
2023-03-19T17:15:25.786Z,5.28
2023-03-19T17:17:54.074Z,4.50
2023-03-19T17:20:24.385Z,4.93
2023-03-19T17:22:52.647Z,5.22
2023-03-19T17:25:22.672Z,6.18
2023-03-19T17:27:51.020Z,7.15
2023-03-19T17:30:19.779Z,8.02
2023-03-19T17:32:49.802Z,7.10
2023-03-19T17:35:20.530Z,8.23
2023-03-19T17:40:23.172Z,7.30
2023-03-19T17:42:52.257Z,7.60
2023-03-19T17:45:22.162Z,7.30
2023-03-19T17:47:53.236Z,6.83
2023-03-19T17:50:23.548Z,7.43
2023-03-19T17:52:52.746Z,7.00
2023-03-19T17:55:24.257Z,6.85
2023-03-19T17:57:53.732Z,7.38
2023-03-19T18:00:23.500Z,9.07
2023-03-19T18:02:53.321Z,9.88
2023-03-19T18:05:23.893Z,8.80
2023-03-19T18:07:55.020Z,9.60
2023-03-19T18:10:26.662Z,6.65
2023-03-19T18:12:54.940Z,7.80
2023-03-19T18:15:23.841Z,8.18
2023-03-19T18:17:53.241Z,7.97
2023-03-19T18:20:24.130Z,9.73
2023-03-19T18:22:52.352Z,8.25
2023-03-19T18:25:22.378Z,8.98
2023-03-19T18:27:53.336Z,8.35
2023-03-19T18:30:23.181Z,7.82
2023-03-19T18:32:53.018Z,7.95
2023-03-19T18:35:24.061Z,7.57
2023-03-19T18:37:53.531Z,6.70
2023-03-19T18:40:23.971Z,7.07
2023-03-19T18:42:53.809Z,6.68
2023-03-19T18:45:22.082Z,6.65
2023-03-19T18:47:50.546Z,6.50
2023-03-19T18:50:20.968Z,6.65
2023-03-19T18:52:51.515Z,6.97
2023-03-19T18:55:21.358Z,5.50
2023-03-19T18:57:53.701Z,5.50
2023-03-19T19:00:26.448Z,6.57
2023-03-19T19:02:56.600Z,6.72
2023-03-19T19:05:27.720Z,6.30
2023-03-19T19:07:57.001Z,7.15
2023-03-19T19:10:25.780Z,6.10
2023-03-19T19:12:56.169Z,4.93
2023-03-19T19:15:28.210Z,4.70
2023-03-19T19:17:56.499Z,4.85
2023-03-19T19:20:26.205Z,4.43
2023-03-19T19:22:54.912Z,4.37
2023-03-19T19:25:25.304Z,4.82
2023-03-19T19:27:57.915Z,7.30
2023-03-19T19:30:27.970Z,5.18
2023-03-19T19:32:57.402Z,5.95
2023-03-19T19:35:27.648Z,5.82
2023-03-19T19:37:56.389Z,5.60
2023-03-19T19:40:28.987Z,6.15
2023-03-19T19:42:57.378Z,7.38
2023-03-19T19:45:32.720Z,5.97
2023-03-19T19:48:01.229Z,5.57
2023-03-19T19:50:29.615Z,5.63
2023-03-19T19:52:58.675Z,7.38
2023-03-19T19:55:27.830Z,7.22
2023-03-19T19:57:56.503Z,6.95
2023-03-19T20:00:26.448Z,6.13
2023-03-19T20:02:56.800Z,6.60
2023-03-19T20:05:27.011Z,6.60
2023-03-19T20:07:56.714Z,7.28
2023-03-19T20:10:27.221Z,6.37
2023-03-19T20:12:57.564Z,6.45
2023-03-19T20:15:27.709Z,7.07
2023-03-19T20:17:57.538Z,5.90
2023-03-19T20:20:28.133Z,4.10
2023-03-19T20:25:26.591Z,3.75
2023-03-19T20:27:56.709Z,5.20
2023-03-19T20:30:26.483Z,5.40
2023-03-19T20:32:55.542Z,5.87
2023-03-19T20:35:26.783Z,4.97
2023-03-19T20:37:56.414Z,5.57
2023-03-19T20:40:27.283Z,5.30
2023-03-19T20:42:55.662Z,4.20
2023-03-19T20:45:25.751Z,3.60
2023-03-19T20:47:54.237Z,4.68
2023-03-19T20:50:26.022Z,3.88
2023-03-19T20:52:55.357Z,5.95
2023-03-19T20:55:25.335Z,4.90
2023-03-19T20:57:53.608Z,6.72
2023-03-19T21:00:24.709Z,7.43
2023-03-19T21:02:54.128Z,7.53
2023-03-19T21:05:22.850Z,9.43
2023-03-19T21:07:53.664Z,6.88
2023-03-19T21:10:27.349Z,5.97
2023-03-19T21:12:56.182Z,7.90
2023-03-19T21:15:24.645Z,8.20
2023-03-19T21:17:53.398Z,8.57
2023-03-19T21:20:23.409Z,7.47
2023-03-19T21:22:55.173Z,7.07
2023-03-19T21:25:25.966Z,7.25
2023-03-19T21:27:56.833Z,7.55
2023-03-19T21:30:25.075Z,7.43
2023-03-19T21:32:53.983Z,7.22
2023-03-19T21:35:23.845Z,7.20
2023-03-19T21:37:54.219Z,7.33
2023-03-19T21:40:24.091Z,7.35
2023-03-19T21:42:54.683Z,7.68
2023-03-19T21:48:00.661Z,7.50
2023-03-19T21:50:29.087Z,8.13
2023-03-19T21:53:01.612Z,8.05
2023-03-19T21:55:30.042Z,7.82
2023-03-19T21:57:58.782Z,6.95
2023-03-19T22:00:27.056Z,7.60
2023-03-19T22:02:55.711Z,8.40
2023-03-19T22:05:25.976Z,7.88
2023-03-19T22:07:54.690Z,8.05
2023-03-19T22:10:28.221Z,8.68
2023-03-19T22:12:56.532Z,7.40
2023-03-19T22:15:31.112Z,7.93
2023-03-19T22:17:59.879Z,8.05
2023-03-19T22:20:28.215Z,7.32
2023-03-19T22:22:56.632Z,7.68
2023-03-19T22:25:30.061Z,8.35
2023-03-19T22:27:58.439Z,7.93
2023-03-19T22:30:35.693Z,8.80
2023-03-19T22:33:04.869Z,9.35
2023-03-19T22:35:33.242Z,8.48
2023-03-19T22:38:01.536Z,9.40
2023-03-19T22:40:31.095Z,9.18
2023-03-19T22:42:59.367Z,8.38
2023-03-19T22:45:28.829Z,9.27
2023-03-19T22:47:58.228Z,10.20
2023-03-19T22:50:28.616Z,8.68
2023-03-19T22:52:57.479Z,9.35
2023-03-19T22:55:26.172Z,9.68
2023-03-19T22:57:55.974Z,9.70
2023-03-19T23:00:25.900Z,8.32
2023-03-19T23:02:57.442Z,8.13
2023-03-19T23:05:31.141Z,7.45
2023-03-19T23:07:59.488Z,8.07
2023-03-19T23:10:29.936Z,6.97
2023-03-19T23:13:00.250Z,6.65
2023-03-19T23:15:30.868Z,7.30
2023-03-19T23:20:29.123Z,6.78
2023-03-19T23:22:57.693Z,6.07
2023-03-19T23:25:28.425Z,5.57
2023-03-19T23:28:01.149Z,5.65
2023-03-19T23:30:31.708Z,6.00
2023-03-19T23:35:31.315Z,5.70
2023-03-19T23:37:59.593Z,5.50
2023-03-19T23:40:31.349Z,5.47
2023-03-19T23:43:02.516Z,5.32
2023-03-19T23:45:35.407Z,5.50
2023-03-19T23:48:05.957Z,5.38
2023-03-19T23:50:34.757Z,5.15
2023-03-19T23:53:03.028Z,5.60
2023-03-19T23:55:31.616Z,4.75
2023-03-19T23:58:02.983Z,4.97
